createdAt,value
2022-09-25T00:00:56.449Z,20.15
2022-09-25T00:03:25.388Z,20.70
2022-09-25T00:05:52.586Z,20.60
2022-09-25T00:08:20.440Z,20.33
2022-09-25T00:10:49.744Z,20.15
2022-09-25T00:13:18.600Z,21.00
2022-09-25T00:15:53.522Z,21.10
2022-09-25T00:18:39.686Z,22.73
2022-09-25T00:21:06.800Z,21.63
2022-09-25T00:23:34.555Z,21.38
2022-09-25T00:26:02.393Z,22.40
2022-09-25T00:28:32.047Z,21.08
2022-09-25T00:30:58.821Z,20.67
2022-09-25T00:33:25.701Z,19.75
2022-09-25T00:35:52.347Z,20.42
2022-09-25T00:38:19.112Z,21.23
2022-09-25T00:40:46.126Z,19.73
2022-09-25T00:43:34.159Z,21.38
2022-09-25T00:46:02.605Z,20.15
2022-09-25T00:48:29.954Z,20.98
2022-09-25T00:50:57.274Z,20.17
2022-09-25T00:53:30.687Z,17.80
2022-09-25T00:55:58.166Z,19.25
2022-09-25T00:58:28.015Z,18.80
2022-09-25T01:00:55.184Z,19.02
2022-09-25T01:03:22.992Z,20.02
2022-09-25T01:05:49.784Z,19.27
2022-09-25T01:08:19.586Z,19.90
2022-09-25T01:10:46.741Z,20.77
2022-09-25T01:13:14.026Z,18.55
2022-09-25T01:16:17.266Z,20.98
2022-09-25T01:19:11.171Z,21.65
2022-09-25T01:21:49.621Z,21.58
2022-09-25T01:24:35.059Z,22.77
2022-09-25T01:27:32.201Z,22.95
2022-09-25T01:30:13.412Z,25.48
2022-09-25T01:32:55.606Z,24.63
2022-09-25T01:35:36.703Z,24.77
2022-09-25T01:38:15.294Z,22.45
2022-09-25T01:40:48.029Z,24.50
2022-09-25T01:43:18.837Z,24.48
2022-09-25T01:46:22.001Z,27.33
2022-09-25T01:48:54.711Z,24.60
2022-09-25T01:51:24.885Z,26.35
2022-09-25T01:53:54.472Z,23.77
2022-09-25T01:56:32.840Z,29.30
2022-09-25T01:59:10.921Z,27.92
2022-09-25T02:01:40.992Z,27.92
2022-09-25T02:04:15.619Z,27.60
2022-09-25T02:06:44.980Z,26.70
2022-09-25T02:09:36.259Z,26.52
2022-09-25T02:12:08.718Z,25.25
2022-09-25T02:14:39.305Z,25.45
2022-09-25T02:17:10.841Z,24.67
2022-09-25T02:19:56.146Z,24.95
2022-09-25T02:22:26.713Z,23.52
2022-09-25T02:24:59.192Z,24.23
2022-09-25T02:27:29.634Z,25.25
2022-09-25T02:29:56.693Z,24.40
2022-09-25T02:32:28.211Z,25.05
2022-09-25T02:34:55.673Z,22.13
2022-09-25T02:37:22.571Z,21.42
2022-09-25T02:39:52.948Z,24.63
2022-09-25T02:42:29.839Z,24.63
2022-09-25T02:45:18.308Z,25.38
2022-09-25T02:48:24.061Z,25.73
2022-09-25T02:51:05.119Z,25.95
2022-09-25T02:53:49.204Z,25.42
2022-09-25T02:56:30.121Z,27.52
2022-09-25T02:58:59.768Z,25.45
2022-09-25T03:01:27.387Z,27.20
2022-09-25T03:03:55.836Z,25.15
2022-09-25T03:06:22.886Z,21.88
2022-09-25T03:08:53.049Z,22.33
2022-09-25T03:11:21.346Z,21.85
2022-09-25T03:13:56.307Z,24.17
2022-09-25T03:16:25.827Z,22.08
2022-09-25T03:18:52.499Z,22.40
2022-09-25T03:21:19.218Z,23.40
2022-09-25T03:23:45.891Z,22.50
2022-09-25T03:26:13.110Z,20.60
2022-09-25T03:28:40.223Z,20.98
2022-09-25T03:31:10.640Z,20.92
2022-09-25T03:33:42.758Z,21.27
2022-09-25T03:36:15.192Z,22.17
2022-09-25T03:38:43.149Z,22.58
2022-09-25T03:41:10.922Z,22.67
2022-09-25T03:43:38.931Z,20.73
2022-09-25T03:46:07.039Z,20.10
2022-09-25T03:48:34.455Z,20.92
2022-09-25T03:51:01.360Z,21.63
2022-09-25T03:53:31.728Z,20.92
2022-09-25T03:55:58.551Z,20.85
2022-09-25T03:58:25.328Z,21.08
2022-09-25T04:00:52.012Z,22.17
2022-09-25T04:03:18.846Z,19.60
2022-09-25T04:05:46.274Z,20.67
2022-09-25T04:08:13.054Z,20.65
2022-09-25T04:10:40.402Z,22.17
2022-09-25T04:13:07.630Z,20.60
2022-09-25T04:15:34.416Z,19.23
2022-09-25T04:18:05.996Z,20.35
2022-09-25T04:20:33.166Z,21.15
2022-09-25T04:23:00.218Z,20.75
2022-09-25T04:25:26.944Z,20.45
2022-09-25T04:27:58.489Z,21.65
2022-09-25T04:30:27.137Z,22.83
2022-09-25T04:33:12.700Z,22.00
2022-09-25T04:35:40.706Z,20.38
2022-09-25T04:38:07.890Z,21.33
2022-09-25T04:40:34.687Z,20.42
2022-09-25T04:43:02.767Z,20.65
2022-09-25T04:45:31.108Z,20.40
2022-09-25T04:48:00.122Z,21.75
2022-09-25T04:50:28.756Z,20.88
2022-09-25T04:53:02.014Z,21.27
2022-09-25T04:55:28.994Z,20.77
2022-09-25T04:57:59.184Z,20.80
2022-09-25T05:00:29.881Z,21.02
2022-09-25T05:02:56.716Z,21.65
2022-09-25T05:05:27.376Z,22.58
2022-09-25T05:07:55.199Z,20.38
2022-09-25T05:10:27.855Z,19.00
2022-09-25T05:12:56.407Z,18.98
2022-09-25T05:15:23.579Z,21.23
2022-09-25T05:17:50.278Z,20.40
2022-09-25T05:20:17.293Z,21.02
2022-09-25T05:22:44.406Z,19.00
2022-09-25T05:25:11.132Z,19.40
2022-09-25T05:27:38.634Z,20.58
2022-09-25T05:30:05.905Z,19.92
2022-09-25T05:32:32.604Z,20.33
2022-09-25T05:34:59.310Z,20.52
2022-09-25T05:37:26.024Z,20.92
2022-09-25T05:39:53.092Z,20.08
2022-09-25T05:42:19.719Z,20.40
2022-09-25T05:44:46.595Z,19.92
2022-09-25T05:47:13.414Z,19.88
2022-09-25T05:49:40.116Z,18.83
2022-09-25T05:52:06.766Z,18.02
2022-09-25T05:54:33.360Z,19.60
2022-09-25T05:57:08.106Z,19.27
2022-09-25T05:59:35.318Z,18.38
2022-09-25T06:02:02.164Z,18.75
2022-09-25T06:04:28.876Z,18.90
2022-09-25T06:06:55.578Z,18.88
2022-09-25T06:09:25.543Z,17.67
2022-09-25T06:11:53.597Z,18.45
2022-09-25T06:14:20.561Z,17.65
2022-09-25T06:16:50.393Z,18.15
2022-09-25T06:19:17.507Z,16.83
2022-09-25T06:21:47.583Z,17.23
2022-09-25T06:24:14.618Z,17.63
2022-09-25T06:26:41.618Z,18.10
2022-09-25T06:29:08.265Z,17.83
2022-09-25T06:31:35.162Z,17.38
2022-09-25T06:34:01.894Z,18.15
2022-09-25T06:36:29.085Z,19.60
2022-09-25T06:38:56.258Z,18.48
2022-09-25T06:41:23.464Z,18.30
2022-09-25T06:43:51.010Z,17.67
2022-09-25T06:46:20.368Z,16.92
2022-09-25T06:48:57.967Z,15.38
2022-09-25T06:51:25.627Z,15.82
2022-09-25T06:53:53.414Z,16.63
2022-09-25T06:56:20.545Z,16.98
2022-09-25T06:58:47.249Z,16.58
2022-09-25T07:01:14.511Z,15.95
2022-09-25T07:03:48.407Z,15.40
2022-09-25T07:06:17.910Z,16.77
2022-09-25T07:08:44.680Z,15.75
2022-09-25T07:11:19.462Z,17.52
2022-09-25T07:13:46.316Z,16.83
2022-09-25T07:16:15.567Z,16.42
2022-09-25T07:18:43.856Z,16.98
2022-09-25T07:21:15.710Z,16.85
2022-09-25T07:23:42.923Z,16.17
2022-09-25T07:26:11.864Z,17.50
2022-09-25T07:28:42.051Z,15.90
2022-09-25T07:31:15.346Z,16.00
2022-09-25T07:33:42.506Z,16.08
2022-09-25T07:36:09.597Z,15.30
2022-09-25T07:38:37.123Z,15.75
2022-09-25T07:41:08.391Z,15.60
2022-09-25T07:43:35.102Z,14.93
2022-09-25T07:46:01.743Z,14.68
2022-09-25T07:48:30.765Z,14.95
2022-09-25T07:51:04.646Z,14.57
2022-09-25T07:53:31.715Z,14.85
2022-09-25T07:56:05.092Z,15.10
2022-09-25T07:58:33.087Z,14.32
2022-09-25T08:01:00.855Z,13.30
2022-09-25T08:03:28.034Z,14.93
2022-09-25T08:06:02.599Z,14.55
2022-09-25T08:08:29.918Z,14.23
2022-09-25T08:11:06.893Z,14.45
2022-09-25T08:13:34.385Z,13.63
2022-09-25T08:16:06.230Z,14.48
2022-09-25T08:18:33.440Z,14.52
2022-09-25T08:21:04.145Z,14.57
2022-09-25T08:23:31.135Z,14.25
2022-09-25T08:25:58.184Z,14.05
2022-09-25T08:28:24.887Z,13.20
2022-09-25T08:30:51.654Z,13.98
2022-09-25T08:33:18.548Z,14.40
2022-09-25T08:35:57.754Z,14.40
2022-09-25T08:38:24.888Z,15.95
2022-09-25T08:40:56.853Z,15.05
2022-09-25T08:43:24.672Z,14.30
2022-09-25T08:46:10.150Z,14.15
2022-09-25T08:49:02.861Z,13.70
2022-09-25T08:51:30.745Z,12.50
2022-09-25T08:53:59.303Z,14.20
2022-09-25T08:56:27.857Z,12.63
2022-09-25T08:59:23.742Z,12.43
2022-09-25T09:01:54.945Z,12.68
2022-09-25T09:04:51.854Z,11.88
2022-09-25T09:07:28.103Z,12.18
2022-09-25T09:10:04.058Z,11.45
2022-09-25T09:12:45.984Z,12.82
2022-09-25T09:15:36.487Z,11.25
2022-09-25T09:18:15.448Z,11.77
2022-09-25T09:20:51.798Z,11.07
2022-09-25T09:23:20.999Z,12.30
2022-09-25T09:25:51.055Z,11.45
2022-09-25T09:28:24.748Z,11.10
2022-09-25T09:31:10.297Z,11.20
2022-09-25T09:33:58.632Z,12.18
2022-09-25T09:36:43.995Z,12.13
2022-09-25T09:39:23.103Z,12.55
2022-09-25T09:41:54.558Z,12.77
2022-09-25T09:44:51.407Z,14.00
2022-09-25T09:47:50.841Z,12.73
2022-09-25T09:50:24.988Z,12.43
2022-09-25T09:52:58.496Z,11.93
2022-09-25T09:55:31.020Z,12.52
2022-09-25T09:58:03.209Z,10.98
2022-09-25T10:00:30.109Z,11.45
2022-09-25T10:03:03.603Z,10.23
2022-09-25T10:05:39.906Z,11.85
2022-09-25T10:08:06.590Z,12.15
2022-09-25T10:10:38.706Z,11.90
2022-09-25T10:13:11.211Z,12.50
2022-09-25T10:18:23.006Z,13.10
2022-09-25T10:20:54.308Z,14.38
2022-09-25T10:23:36.056Z,14.88
2022-09-25T10:26:03.163Z,14.67
2022-09-25T10:28:32.593Z,13.93
2022-09-25T10:31:00.076Z,13.05
2022-09-25T10:33:31.081Z,14.50
2022-09-25T10:35:58.519Z,13.50
2022-09-25T10:38:32.872Z,13.93
2022-09-25T10:41:13.708Z,14.10
2022-09-25T10:44:00.245Z,14.40
2022-09-25T10:46:50.694Z,14.57
2022-09-25T10:49:46.770Z,14.68
2022-09-25T10:52:15.721Z,13.90
2022-09-25T10:54:45.656Z,14.63
2022-09-25T10:57:25.630Z,13.63
2022-09-25T10:59:52.968Z,13.93
2022-09-25T11:02:34.625Z,14.55
2022-09-25T11:05:01.965Z,14.23
2022-09-25T11:07:29.156Z,15.50
2022-09-25T11:09:59.953Z,15.48
2022-09-25T11:12:32.244Z,15.48
2022-09-25T11:15:08.965Z,15.90
2022-09-25T11:17:43.473Z,16.60
2022-09-25T11:20:16.622Z,16.98
2022-09-25T11:22:48.627Z,16.27
2022-09-25T11:25:16.230Z,16.70
2022-09-25T11:27:50.447Z,17.67
2022-09-25T11:30:19.171Z,16.10
2022-09-25T11:33:13.097Z,16.67
2022-09-25T11:35:50.165Z,16.52
2022-09-25T11:38:52.697Z,16.65
2022-09-25T11:41:50.226Z,15.32
2022-09-25T11:44:21.506Z,16.83
2022-09-25T11:47:01.566Z,15.55
2022-09-25T11:49:39.598Z,15.75
2022-09-25T11:52:20.430Z,15.48
2022-09-25T11:54:51.276Z,17.20
2022-09-25T11:57:40.056Z,16.10
2022-09-25T12:00:22.142Z,17.30
2022-09-25T12:03:28.492Z,16.55
2022-09-25T12:06:16.907Z,16.50
2022-09-25T12:09:17.380Z,18.20
2022-09-25T12:11:54.757Z,18.42
2022-09-25T12:14:50.571Z,16.92
2022-09-25T12:17:23.875Z,17.17
2022-09-25T12:20:02.517Z,17.38
2022-09-25T12:23:14.000Z,18.27
2022-09-25T12:26:05.701Z,17.00
2022-09-25T12:28:52.377Z,17.50
2022-09-25T12:31:19.319Z,16.90
2022-09-25T12:33:55.800Z,17.00
2022-09-25T12:36:35.599Z,15.88
2022-09-25T12:39:25.830Z,15.30
2022-09-25T12:42:24.469Z,15.10
2022-09-25T12:44:58.245Z,13.65
2022-09-25T12:47:43.195Z,13.07
2022-09-25T12:50:32.091Z,13.30
2022-09-25T12:53:20.653Z,11.15
2022-09-25T12:56:15.068Z,8.43
2022-09-25T12:58:53.946Z,18.15
2022-09-25T13:01:53.747Z,8.60
2022-09-25T13:04:27.723Z,7.78
2022-09-25T13:07:04.179Z,8.32
2022-09-25T13:09:35.603Z,11.70
2022-09-25T13:12:16.906Z,8.30
2022-09-25T13:14:52.449Z,6.82
2022-09-25T13:17:19.074Z,6.35
2022-09-25T13:19:46.109Z,6.68
2022-09-25T13:22:13.708Z,6.03
2022-09-25T13:24:46.325Z,8.23
2022-09-25T13:27:22.608Z,14.80
2022-09-25T13:29:55.819Z,9.20
2022-09-25T13:32:24.580Z,9.75
2022-09-25T13:35:03.413Z,7.22
2022-09-25T13:37:35.811Z,7.35
2022-09-25T13:40:35.783Z,7.05
2022-09-25T13:43:25.050Z,7.43
2022-09-25T13:46:15.074Z,7.90
2022-09-25T13:48:42.294Z,7.00
2022-09-25T13:51:20.917Z,8.15
2022-09-25T13:53:59.284Z,9.05
2022-09-25T13:56:29.105Z,7.95
2022-09-25T13:58:59.687Z,7.78
2022-09-25T14:01:36.974Z,9.23
2022-09-25T14:04:27.284Z,8.70
2022-09-25T14:06:58.449Z,8.02
2022-09-25T14:09:28.808Z,8.05
2022-09-25T14:12:05.124Z,7.45
2022-09-25T14:14:35.149Z,6.70
2022-09-25T14:17:03.567Z,7.32
2022-09-25T14:19:35.995Z,7.30
2022-09-25T14:24:31.176Z,6.72
2022-09-25T14:27:01.467Z,6.03
2022-09-25T14:29:48.549Z,6.38
2022-09-25T14:32:55.933Z,6.63
2022-09-25T14:35:29.029Z,7.00
2022-09-25T14:41:04.385Z,6.75
2022-09-25T14:43:41.868Z,5.75
2022-09-25T14:46:19.952Z,4.47
2022-09-25T14:48:54.903Z,4.78
2022-09-25T14:51:25.847Z,4.30
2022-09-25T14:53:57.232Z,3.10
2022-09-25T14:56:24.792Z,3.35
2022-09-25T14:58:57.881Z,3.25
2022-09-25T15:01:26.126Z,3.40
2022-09-25T15:03:54.563Z,3.05
2022-09-25T15:06:45.589Z,3.63
2022-09-25T15:09:37.641Z,3.60
2022-09-25T15:12:31.494Z,3.67
2022-09-25T15:15:11.575Z,3.72
2022-09-25T15:17:45.631Z,3.40
2022-09-25T15:20:19.661Z,2.95
2022-09-25T15:23:06.036Z,3.70
2022-09-25T15:25:39.531Z,3.05
2022-09-25T15:28:07.813Z,3.13
2022-09-25T15:30:36.667Z,3.50
2022-09-25T15:33:03.504Z,3.13
2022-09-25T15:35:30.626Z,3.03
2022-09-25T15:38:10.757Z,3.75
2022-09-25T15:40:38.037Z,3.03
2022-09-25T15:43:12.714Z,3.10
2022-09-25T15:45:43.290Z,2.88
2022-09-25T15:48:32.608Z,3.03
2022-09-25T15:51:02.256Z,3.00
2022-09-25T15:53:33.365Z,2.90
2022-09-25T15:56:07.018Z,3.10
2022-09-25T15:58:43.292Z,3.53
2022-09-25T16:01:30.973Z,3.38
2022-09-25T16:04:16.286Z,3.63
2022-09-25T16:06:44.529Z,3.78
2022-09-25T16:09:21.347Z,4.25
2022-09-25T16:11:48.671Z,3.42
2022-09-25T16:14:29.278Z,3.88
2022-09-25T16:16:57.428Z,4.10
2022-09-25T16:19:27.811Z,4.53
2022-09-25T16:21:54.789Z,4.28
2022-09-25T16:24:27.082Z,3.60
2022-09-25T16:26:59.652Z,3.92
2022-09-25T16:32:08.356Z,3.10
2022-09-25T16:34:39.575Z,2.92
2022-09-25T16:37:18.520Z,2.75
2022-09-25T16:39:45.165Z,3.50
2022-09-25T16:42:40.335Z,3.08
2022-09-25T16:45:27.777Z,3.20
2022-09-25T16:47:54.587Z,5.03
2022-09-25T16:50:22.156Z,4.45
2022-09-25T16:52:49.525Z,3.70
2022-09-25T16:55:23.396Z,4.22
2022-09-25T16:57:51.877Z,3.90
2022-09-25T17:00:29.300Z,3.85
2022-09-25T17:02:56.693Z,5.20
2022-09-25T17:05:26.882Z,4.10
2022-09-25T17:08:00.425Z,4.13
2022-09-25T17:10:29.684Z,3.00
2022-09-25T17:12:57.700Z,2.85
2022-09-25T17:15:29.357Z,2.25
2022-09-25T17:17:56.534Z,2.65
2022-09-25T17:20:24.562Z,2.25
2022-09-25T17:22:52.626Z,2.30
2022-09-25T17:26:00.482Z,2.20
2022-09-25T17:28:27.872Z,2.05
2022-09-25T17:30:54.645Z,3.40
2022-09-25T17:33:22.714Z,3.88
2022-09-25T17:35:53.004Z,7.15
2022-09-25T17:38:19.939Z,4.60
2022-09-25T17:40:48.120Z,4.80
2022-09-25T17:43:15.816Z,6.70
2022-09-25T17:45:54.556Z,5.72
2022-09-25T17:48:29.494Z,5.53
2022-09-25T17:51:01.552Z,7.65
2022-09-25T17:53:30.493Z,5.20
2022-09-25T17:55:57.432Z,5.55
2022-09-25T17:58:25.481Z,5.50
2022-09-25T18:00:53.268Z,5.90
2022-09-25T18:03:20.930Z,5.82
2022-09-25T18:05:47.966Z,5.70
2022-09-25T18:08:15.158Z,5.53
2022-09-25T18:10:42.137Z,7.55
2022-09-25T18:13:13.596Z,6.78
2022-09-25T18:15:54.901Z,8.05
2022-09-25T18:18:21.651Z,8.30
2022-09-25T18:21:09.278Z,9.65
2022-09-25T18:23:38.759Z,8.40
2022-09-25T18:26:07.483Z,10.23
2022-09-25T18:28:34.181Z,10.18
2022-09-25T18:31:00.945Z,11.65
2022-09-25T18:33:27.685Z,10.15
2022-09-25T18:35:54.822Z,10.77
2022-09-25T18:38:21.455Z,12.07
2022-09-25T18:40:48.147Z,11.95
2022-09-25T18:43:14.906Z,12.68
2022-09-25T18:45:48.303Z,12.10
2022-09-25T18:48:14.901Z,11.95
2022-09-25T18:50:41.883Z,12.82
2022-09-25T18:53:08.606Z,13.18
2022-09-25T18:55:35.357Z,16.08
2022-09-25T18:58:02.294Z,14.85
2022-09-25T19:00:29.024Z,13.18
2022-09-25T19:02:55.716Z,15.98
2022-09-25T19:05:22.559Z,15.80
2022-09-25T19:07:49.396Z,16.13
2022-09-25T19:10:16.152Z,14.18
2022-09-25T19:12:44.044Z,14.80
2022-09-25T19:15:10.881Z,15.57
2022-09-25T19:17:37.644Z,15.52
2022-09-25T19:20:04.996Z,15.85
2022-09-25T19:22:31.648Z,14.32
2022-09-25T19:24:58.727Z,15.27
2022-09-25T19:27:25.616Z,15.75
2022-09-25T19:29:52.327Z,16.33
2022-09-25T19:32:19.250Z,14.85
2022-09-25T19:34:46.346Z,15.95
2022-09-25T19:37:13.323Z,15.88
2022-09-25T19:39:58.716Z,13.77
2022-09-25T19:42:27.578Z,15.30
2022-09-25T19:44:55.938Z,15.20
2022-09-25T19:47:23.563Z,15.32
2022-09-25T19:49:50.255Z,14.13
2022-09-25T19:52:17.205Z,13.00
2022-09-25T19:54:43.866Z,13.60
2022-09-25T19:57:11.335Z,13.50
2022-09-25T19:59:37.942Z,13.68
2022-09-25T20:02:04.781Z,12.88
2022-09-25T20:04:31.441Z,13.40
2022-09-25T20:06:58.924Z,12.27
2022-09-25T20:09:28.776Z,12.75
2022-09-25T20:12:04.882Z,12.32
2022-09-25T20:14:31.489Z,12.25
2022-09-25T20:16:59.400Z,11.38
2022-09-25T20:19:27.506Z,11.77
2022-09-25T20:21:54.351Z,11.52
2022-09-25T20:24:21.115Z,10.68
2022-09-25T20:26:48.040Z,10.82
2022-09-25T20:29:16.873Z,10.65
2022-09-25T20:31:45.375Z,10.80
2022-09-25T20:34:13.985Z,10.45
2022-09-25T20:36:40.728Z,10.40
2022-09-25T20:39:07.992Z,10.25
2022-09-25T20:41:34.982Z,9.77
2022-09-25T20:44:01.823Z,9.80
2022-09-25T20:46:30.091Z,11.00
2022-09-25T20:48:57.651Z,9.63
2022-09-25T20:51:30.260Z,11.73
2022-09-25T20:53:59.605Z,10.57
2022-09-25T20:56:27.702Z,11.50
2022-09-25T20:58:55.477Z,11.35
2022-09-25T21:01:26.477Z,11.68
2022-09-25T21:03:53.530Z,13.52
2022-09-25T21:06:26.289Z,11.82
2022-09-25T21:08:55.001Z,12.10
2022-09-25T21:11:22.743Z,12.07
2022-09-25T21:13:53.720Z,11.90
2022-09-25T21:16:22.142Z,13.15
2022-09-25T21:18:57.509Z,11.82
2022-09-25T21:21:25.059Z,11.23
2022-09-25T21:23:56.421Z,11.85
2022-09-25T21:26:28.393Z,11.52
2022-09-25T21:28:57.214Z,11.43
2022-09-25T21:31:26.610Z,11.95
2022-09-25T21:33:54.568Z,11.35
2022-09-25T21:36:21.976Z,11.82
2022-09-25T21:38:49.479Z,11.32
2022-09-25T21:41:19.486Z,10.68
2022-09-25T21:43:46.543Z,10.52
2022-09-25T21:46:18.437Z,10.70
2022-09-25T21:48:59.862Z,10.52
2022-09-25T21:51:32.281Z,10.68
2022-09-25T21:54:01.169Z,10.18
2022-09-25T21:56:29.692Z,10.88
2022-09-25T21:58:57.645Z,9.85
2022-09-25T22:01:27.770Z,10.13
2022-09-25T22:03:57.333Z,10.07
2022-09-25T22:06:29.302Z,9.48
2022-09-25T22:08:59.364Z,8.48
2022-09-25T22:11:27.115Z,8.98
2022-09-25T22:13:55.865Z,7.97
2022-09-25T22:16:25.392Z,9.65
2022-09-25T22:18:54.768Z,8.68
2022-09-25T22:21:23.669Z,9.32
2022-09-25T22:23:50.683Z,9.95
2022-09-25T22:26:18.581Z,9.50
2022-09-25T22:28:45.746Z,9.32
2022-09-25T22:31:15.587Z,8.82
2022-09-25T22:33:42.366Z,10.77
2022-09-25T22:36:10.471Z,10.88
2022-09-25T22:38:38.769Z,10.60
2022-09-25T22:41:13.420Z,10.48
2022-09-25T22:43:40.976Z,11.13
2022-09-25T22:46:09.013Z,10.27
2022-09-25T22:48:36.434Z,10.45
2022-09-25T22:51:08.543Z,10.45
2022-09-25T22:53:38.294Z,10.57
2022-09-25T22:56:11.927Z,10.63
2022-09-25T22:58:38.656Z,11.52
2022-09-25T23:01:11.990Z,10.68
2022-09-25T23:03:38.704Z,10.32
2022-09-25T23:06:05.404Z,11.20
2022-09-25T23:08:32.087Z,10.80
2022-09-25T23:11:07.503Z,11.45
2022-09-25T23:13:34.957Z,11.10
2022-09-25T23:16:07.279Z,11.43
2022-09-25T23:18:37.234Z,11.85
2022-09-25T23:21:04.595Z,12.25
2022-09-25T23:23:32.339Z,11.90
2022-09-25T23:26:07.975Z,12.48
2022-09-25T23:28:36.407Z,12.95
2022-09-25T23:31:11.573Z,13.15
2022-09-25T23:33:39.788Z,12.30
2022-09-25T23:36:12.951Z,13.68
2022-09-25T23:38:39.678Z,13.80
2022-09-25T23:41:17.905Z,12.90
2022-09-25T23:43:45.068Z,13.23
2022-09-25T23:46:12.339Z,12.57
2022-09-25T23:48:39.511Z,13.32
2022-09-25T23:51:07.601Z,14.68
2022-09-25T23:53:34.328Z,13.93
2022-09-25T23:56:12.296Z,14.23
2022-09-25T23:58:39.532Z,13.85
